createdAt,value
2018-07-24T00:00:08.133Z,58.30
2018-07-24T00:02:45.028Z,58.60
2018-07-24T00:05:18.225Z,58.40
2018-07-24T00:07:50.499Z,58.00
2018-07-24T00:10:22.588Z,58.10
2018-07-24T00:12:55.879Z,58.00
2018-07-24T00:15:33.512Z,58.00
2018-07-24T00:18:06.169Z,58.00
2018-07-24T00:20:39.417Z,58.00
2018-07-24T00:25:45.818Z,58.30
2018-07-24T00:28:20.540Z,58.20
2018-07-24T00:33:34.093Z,58.20
2018-07-24T00:36:07.489Z,57.60
2018-07-24T00:38:41.490Z,58.00
2018-07-24T00:41:18.647Z,58.20
2018-07-24T00:43:51.865Z,57.80
2018-07-24T00:46:25.110Z,57.60
2018-07-24T00:48:57.282Z,57.70
2018-07-24T00:51:29.584Z,57.70
2018-07-24T00:54:02.151Z,57.40
2018-07-24T00:56:34.397Z,57.60
2018-07-24T00:59:07.595Z,57.40
2018-07-24T01:01:39.923Z,57.60
2018-07-24T01:04:12.577Z,57.90
2018-07-24T01:06:44.861Z,57.70
2018-07-24T01:09:17.313Z,57.60
2018-07-24T01:11:50.752Z,57.60
2018-07-24T01:14:22.719Z,57.90
2018-07-24T01:16:55.593Z,57.60
2018-07-24T01:19:28.052Z,57.50
2018-07-24T01:22:00.207Z,57.70
2018-07-24T01:27:03.361Z,57.70
2018-07-24T01:29:37.025Z,57.40
2018-07-24T01:32:09.590Z,57.30
2018-07-24T01:34:41.700Z,57.30
2018-07-24T01:37:13.766Z,57.20
2018-07-24T01:39:46.590Z,57.00
2018-07-24T01:42:18.446Z,57.10
2018-07-24T01:44:50.821Z,57.20
2018-07-24T01:47:23.315Z,57.40
2018-07-24T01:52:26.357Z,57.10
2018-07-24T01:54:58.443Z,56.90
2018-07-24T01:57:30.714Z,57.00
2018-07-24T02:00:02.887Z,57.30
2018-07-24T02:02:35.588Z,57.40
2018-07-24T02:05:08.099Z,57.00
2018-07-24T02:07:40.751Z,57.20
2018-07-24T02:10:12.889Z,57.60
2018-07-24T02:12:45.030Z,57.80
2018-07-24T02:15:17.218Z,57.70
2018-07-24T02:17:49.402Z,57.70
2018-07-24T02:20:21.515Z,57.60
2018-07-24T02:22:53.671Z,57.70
2018-07-24T02:25:25.726Z,57.30
2018-07-24T02:27:58.589Z,57.60
2018-07-24T02:30:30.662Z,57.10
2018-07-24T02:33:02.835Z,57.00
2018-07-24T02:35:35.510Z,57.70
2018-07-24T02:38:08.043Z,57.20
2018-07-24T02:40:40.089Z,57.30
2018-07-24T02:43:17.662Z,57.60
2018-07-24T02:45:49.662Z,57.60
2018-07-24T02:48:21.887Z,57.30
2018-07-24T02:50:55.023Z,57.30
2018-07-24T02:53:26.898Z,56.90
2018-07-24T02:55:59.157Z,56.90
2018-07-24T02:58:31.090Z,57.00
2018-07-24T03:01:03.309Z,57.40
2018-07-24T03:03:35.383Z,57.30
2018-07-24T03:06:07.628Z,57.40
2018-07-24T03:08:39.641Z,57.70
2018-07-24T03:13:42.713Z,58.20
2018-07-24T03:16:15.161Z,57.80
2018-07-24T03:18:47.290Z,57.70
2018-07-24T03:21:19.522Z,57.70
2018-07-24T03:23:51.717Z,57.80
2018-07-24T03:26:23.742Z,57.70
2018-07-24T03:28:55.809Z,57.60
2018-07-24T03:31:28.119Z,57.60
2018-07-24T03:34:00.258Z,57.70
2018-07-24T03:36:32.117Z,57.70
2018-07-24T03:39:04.667Z,57.90
2018-07-24T03:41:36.903Z,58.20
2018-07-24T03:44:09.068Z,58.10
2018-07-24T03:46:41.081Z,58.00
2018-07-24T03:49:13.131Z,58.10
2018-07-24T03:51:45.164Z,57.80
2018-07-24T03:54:17.200Z,58.30
2018-07-24T03:56:49.477Z,57.90
2018-07-24T03:59:21.750Z,58.00
2018-07-24T04:01:54.182Z,58.00
2018-07-24T04:04:26.276Z,58.10
2018-07-24T04:06:58.221Z,58.20
2018-07-24T04:17:03.792Z,58.30
2018-07-24T04:19:35.942Z,58.20
2018-07-24T04:22:08.306Z,58.50
2018-07-24T04:24:40.365Z,58.50
2018-07-24T04:27:12.526Z,58.40
2018-07-24T04:29:44.602Z,58.50
2018-07-24T04:32:16.742Z,58.70
2018-07-24T04:34:48.993Z,58.80
2018-07-24T04:37:21.011Z,58.70
2018-07-24T04:39:53.112Z,58.60
2018-07-24T04:42:25.458Z,59.00
2018-07-24T04:44:57.552Z,58.90
2018-07-24T04:47:32.998Z,59.10
2018-07-24T04:50:05.087Z,59.00
2018-07-24T04:52:37.805Z,58.90
2018-07-24T04:55:09.966Z,59.70
2018-07-24T04:57:42.047Z,59.20
2018-07-24T05:00:14.362Z,59.20
2018-07-24T05:02:46.415Z,59.20
2018-07-24T05:05:18.623Z,58.90
2018-07-24T05:07:50.701Z,59.40
2018-07-24T05:10:22.996Z,59.50
2018-07-24T05:12:54.963Z,59.60
2018-07-24T05:15:27.377Z,60.00
2018-07-24T05:17:59.326Z,60.50
2018-07-24T05:20:31.571Z,60.10
2018-07-24T05:23:03.593Z,60.20
2018-07-24T05:25:36.350Z,60.20
2018-07-24T05:28:08.520Z,60.30
2018-07-24T05:30:40.675Z,60.30
2018-07-24T05:33:13.410Z,60.40
2018-07-24T05:35:45.494Z,60.60
2018-07-24T05:38:17.426Z,60.70
2018-07-24T05:40:49.437Z,60.70
2018-07-24T05:45:52.478Z,60.90
2018-07-24T05:48:24.621Z,60.90
2018-07-24T05:50:56.622Z,61.20
2018-07-24T05:53:28.515Z,61.00
2018-07-24T05:56:00.699Z,61.10
2018-07-24T05:58:32.980Z,61.40
2018-07-24T06:01:04.981Z,61.40
2018-07-24T06:03:37.104Z,61.40
2018-07-24T06:06:09.146Z,62.00
2018-07-24T06:08:41.518Z,62.20
2018-07-24T06:11:13.789Z,62.10
2018-07-24T06:13:45.940Z,62.50
2018-07-24T06:16:18.009Z,62.30
2018-07-24T06:18:49.981Z,62.60
2018-07-24T06:21:22.130Z,62.60
2018-07-24T06:23:54.774Z,62.80
2018-07-24T06:26:26.908Z,64.00
2018-07-24T06:28:58.946Z,63.00
2018-07-24T06:31:30.898Z,63.20
2018-07-24T06:34:02.958Z,63.20
2018-07-24T06:36:35.317Z,63.50
2018-07-24T06:39:11.750Z,64.20
2018-07-24T06:41:43.973Z,64.60
2018-07-24T06:44:15.796Z,64.80
2018-07-24T06:46:47.877Z,64.80
2018-07-24T06:49:20.080Z,64.90
2018-07-24T06:51:52.281Z,65.00
2018-07-24T06:54:24.411Z,64.80
2018-07-24T06:56:56.645Z,64.90
2018-07-24T06:59:29.423Z,65.00
2018-07-24T07:02:01.473Z,65.30
2018-07-24T07:04:33.363Z,65.30
2018-07-24T07:07:05.451Z,64.80
2018-07-24T07:09:37.667Z,65.50
2018-07-24T07:12:09.772Z,66.00
2018-07-24T07:14:41.618Z,65.80
2018-07-24T07:17:13.861Z,65.90
2018-07-24T07:19:46.646Z,65.90
2018-07-24T07:22:18.947Z,65.50
2018-07-24T07:24:51.065Z,65.70
2018-07-24T07:27:23.190Z,65.80
2018-07-24T07:29:55.066Z,66.20
2018-07-24T07:32:28.133Z,66.60
2018-07-24T07:35:04.013Z,66.60
2018-07-24T07:37:42.135Z,66.80
2018-07-24T07:40:21.984Z,67.50
2018-07-24T07:43:04.164Z,66.20
2018-07-24T07:45:37.157Z,66.00
2018-07-24T07:48:10.901Z,66.20
2018-07-24T07:50:42.974Z,65.90
2018-07-24T07:53:20.330Z,65.90
2018-07-24T07:56:01.155Z,65.50
2018-07-24T07:58:45.441Z,67.00
2018-07-24T08:01:30.069Z,66.10
2018-07-24T08:04:04.441Z,66.40
2018-07-24T08:07:27.638Z,67.00
2018-07-24T08:10:17.779Z,66.80
2018-07-24T08:12:58.099Z,67.20
2018-07-24T08:15:30.308Z,66.90
2018-07-24T08:18:02.503Z,66.60
2018-07-24T08:20:34.757Z,66.90
2018-07-24T08:23:07.017Z,67.00
2018-07-24T08:25:39.073Z,66.40
2018-07-24T08:28:12.299Z,66.30
2018-07-24T08:30:50.047Z,66.90
2018-07-24T08:33:23.867Z,67.30
2018-07-24T08:35:56.057Z,66.90
2018-07-24T08:38:28.859Z,66.90
2018-07-24T08:41:01.021Z,66.60
2018-07-24T08:43:33.167Z,66.90
2018-07-24T08:46:05.277Z,66.60
2018-07-24T08:48:37.573Z,66.90
2018-07-24T08:51:09.679Z,66.30
2018-07-24T08:53:42.585Z,66.60
2018-07-24T08:56:15.841Z,66.60
2018-07-24T08:58:52.965Z,66.40
2018-07-24T09:01:31.268Z,66.10
2018-07-24T09:04:06.347Z,66.30
2018-07-24T09:06:38.907Z,66.30
2018-07-24T09:09:13.308Z,66.10
2018-07-24T09:11:45.304Z,66.10
2018-07-24T09:14:17.178Z,65.90
2018-07-24T09:16:49.367Z,65.90
2018-07-24T09:19:21.495Z,66.00
2018-07-24T09:21:54.027Z,66.00
2018-07-24T09:24:26.052Z,65.80
2018-07-24T09:26:58.793Z,65.80
2018-07-24T09:29:30.879Z,65.80
2018-07-24T09:32:02.919Z,65.90
2018-07-24T09:34:35.265Z,65.90
2018-07-24T09:37:07.444Z,65.70
2018-07-24T09:39:40.061Z,66.20
2018-07-24T09:42:12.376Z,65.70
2018-07-24T09:44:44.642Z,66.00
2018-07-24T09:47:17.224Z,65.90
2018-07-24T09:49:49.292Z,65.70
2018-07-24T09:52:22.625Z,65.70
2018-07-24T09:54:54.599Z,65.60
2018-07-24T09:57:26.551Z,65.20
2018-07-24T09:59:59.700Z,65.50
2018-07-24T10:02:31.741Z,64.40
2018-07-24T10:05:05.412Z,63.80
2018-07-24T10:07:38.187Z,63.00
2018-07-24T10:10:10.461Z,62.80
2018-07-24T10:12:42.589Z,62.20
2018-07-24T10:15:14.739Z,61.70
2018-07-24T10:17:47.030Z,61.80
2018-07-24T10:22:50.151Z,61.30
2018-07-24T10:25:22.366Z,61.50
2018-07-24T10:27:54.588Z,61.50
2018-07-24T10:30:26.698Z,61.10
2018-07-24T10:32:58.781Z,59.90
2018-07-24T10:35:31.636Z,60.20
2018-07-24T10:38:03.815Z,60.20
2018-07-24T10:40:35.945Z,60.30
2018-07-24T10:43:08.238Z,61.00
2018-07-24T10:45:40.411Z,61.50
2018-07-24T10:48:12.950Z,61.80
2018-07-24T10:50:45.204Z,61.70
2018-07-24T10:53:17.275Z,61.80
2018-07-24T10:55:49.411Z,62.40
2018-07-24T10:58:21.476Z,61.40
2018-07-24T11:00:53.449Z,61.30
2018-07-24T11:03:25.390Z,61.40
2018-07-24T11:05:57.397Z,61.50
2018-07-24T11:08:29.545Z,61.60
2018-07-24T11:13:33.052Z,61.80
2018-07-24T11:16:04.861Z,61.60
2018-07-24T11:18:37.145Z,61.70
2018-07-24T11:21:09.178Z,61.30
2018-07-24T11:23:41.689Z,61.60
2018-07-24T11:26:13.848Z,61.30
2018-07-24T11:28:46.174Z,61.10
2018-07-24T11:31:18.301Z,61.20
2018-07-24T11:33:50.547Z,61.20
2018-07-24T11:36:22.729Z,61.10
2018-07-24T11:38:54.985Z,61.00
2018-07-24T11:41:27.079Z,60.30
2018-07-24T11:44:02.063Z,59.20
2018-07-24T11:46:35.103Z,57.90
2018-07-24T11:49:08.060Z,56.70
2018-07-24T11:51:47.952Z,57.70
2018-07-24T11:54:27.073Z,58.40
2018-07-24T11:56:59.703Z,59.00
2018-07-24T11:59:31.844Z,59.30
2018-07-24T12:02:03.944Z,59.50
2018-07-24T12:04:36.096Z,59.70
2018-07-24T12:07:08.264Z,59.80
2018-07-24T12:09:40.453Z,59.80
2018-07-24T12:12:12.507Z,59.90
2018-07-24T12:14:44.576Z,59.90
2018-07-24T12:17:16.703Z,60.00
2018-07-24T12:19:48.905Z,60.00
2018-07-24T12:22:21.214Z,59.90
2018-07-24T12:24:53.194Z,59.90
2018-07-24T12:27:25.492Z,59.90
2018-07-24T12:29:57.736Z,59.90
2018-07-24T12:32:29.921Z,59.90
2018-07-24T12:37:33.131Z,59.60
2018-07-24T12:40:05.467Z,59.70
2018-07-24T12:42:38.103Z,59.70
2018-07-24T12:45:10.308Z,59.80
2018-07-24T12:47:42.321Z,59.60
2018-07-24T12:50:14.691Z,59.40
2018-07-24T12:55:17.815Z,59.40
2018-07-24T12:57:50.054Z,59.30
2018-07-24T13:00:22.248Z,59.30
2018-07-24T13:02:54.362Z,59.40
2018-07-24T13:05:26.674Z,59.30
2018-07-24T13:07:58.979Z,59.40
2018-07-24T13:10:30.893Z,59.40
2018-07-24T13:13:04.743Z,59.40
2018-07-24T13:15:36.743Z,59.30
2018-07-24T13:18:08.788Z,59.30
2018-07-24T13:20:40.921Z,59.80
2018-07-24T13:23:13.236Z,59.50
2018-07-24T13:25:45.307Z,59.00
2018-07-24T13:28:17.571Z,59.00
2018-07-24T13:30:49.479Z,58.90
2018-07-24T13:33:21.482Z,58.90
2018-07-24T13:35:53.437Z,58.90
2018-07-24T13:38:25.507Z,58.70
2018-07-24T13:40:57.616Z,58.70
2018-07-24T13:43:29.770Z,58.60
2018-07-24T13:46:02.046Z,59.00
2018-07-24T13:48:34.260Z,58.50
2018-07-24T13:51:06.470Z,58.40
2018-07-24T13:53:38.976Z,58.20
2018-07-24T13:56:13.114Z,58.20
2018-07-24T13:58:45.294Z,58.10
2018-07-24T14:01:17.404Z,57.90
2018-07-24T14:03:49.554Z,58.00
2018-07-24T14:06:21.515Z,58.00
2018-07-24T14:08:53.459Z,58.00
2018-07-24T14:11:25.490Z,57.90
2018-07-24T14:13:58.130Z,58.00
2018-07-24T14:16:30.404Z,58.00
2018-07-24T14:19:02.328Z,57.80
2018-07-24T14:21:34.481Z,57.80
2018-07-24T14:24:06.640Z,57.90
2018-07-24T14:26:38.820Z,57.70
2018-07-24T14:29:10.866Z,57.90
2018-07-24T14:31:43.121Z,57.80
2018-07-24T14:34:15.338Z,57.90
2018-07-24T14:36:47.991Z,57.90
2018-07-24T14:39:20.415Z,57.80
2018-07-24T14:41:53.002Z,57.80
2018-07-24T14:44:25.832Z,57.70
2018-07-24T14:46:58.913Z,57.60
2018-07-24T14:49:31.258Z,57.60
2018-07-24T14:52:03.720Z,56.20
2018-07-24T14:54:36.406Z,54.30
2018-07-24T14:57:08.672Z,52.70
2018-07-24T14:59:41.210Z,52.10
2018-07-24T15:02:14.221Z,51.20
2018-07-24T15:04:46.486Z,51.00
2018-07-24T15:07:18.695Z,50.30
2018-07-24T15:09:50.836Z,49.70
2018-07-24T15:12:22.891Z,51.20
2018-07-24T15:14:54.867Z,51.60
2018-07-24T15:17:38.338Z,51.80
2018-07-24T15:20:10.730Z,51.90
2018-07-24T15:22:43.080Z,51.50
2018-07-24T15:25:15.328Z,51.00
2018-07-24T15:27:47.883Z,51.50
2018-07-24T15:30:20.427Z,51.60
2018-07-24T15:32:52.727Z,51.90
2018-07-24T15:35:24.699Z,51.60
2018-07-24T15:37:56.714Z,51.90
2018-07-24T15:40:28.884Z,51.50
2018-07-24T15:43:01.120Z,51.50
2018-07-24T15:45:33.313Z,51.30
2018-07-24T15:48:05.487Z,51.60
2018-07-24T15:53:09.152Z,51.60
2018-07-24T15:55:41.429Z,51.70
2018-07-24T15:58:13.679Z,51.00
2018-07-24T16:00:45.860Z,51.50
2018-07-24T16:03:18.025Z,51.40
2018-07-24T16:05:50.203Z,51.60
2018-07-24T16:08:22.119Z,51.50
2018-07-24T16:10:54.352Z,51.50
2018-07-24T16:13:26.563Z,51.50
2018-07-24T16:15:59.067Z,51.60
2018-07-24T16:18:31.164Z,51.70
2018-07-24T16:21:04.197Z,50.00
2018-07-24T16:23:36.560Z,50.50
2018-07-24T16:26:08.768Z,49.00
2018-07-24T16:28:41.068Z,48.60
2018-07-24T16:31:13.215Z,48.80
2018-07-24T16:36:16.598Z,48.20
2018-07-24T16:38:48.836Z,47.90
2018-07-24T16:41:21.002Z,48.60
2018-07-24T16:46:39.011Z,48.60
2018-07-24T16:49:11.350Z,48.20
2018-07-24T16:51:43.802Z,47.60
2018-07-24T16:54:16.014Z,47.30
2018-07-24T16:56:48.486Z,47.90
2018-07-24T16:59:20.560Z,48.00
2018-07-24T17:01:53.403Z,48.30
2018-07-24T17:04:25.769Z,47.80
2018-07-24T17:06:57.977Z,48.20
2018-07-24T17:09:30.036Z,48.70
2018-07-24T17:12:32.406Z,48.70
2018-07-24T17:15:04.801Z,48.50
2018-07-24T17:17:36.932Z,47.70
2018-07-24T17:20:09.746Z,48.50
2018-07-24T17:22:41.786Z,48.60
2018-07-24T17:25:13.825Z,48.20
2018-07-24T17:27:46.208Z,48.50
2018-07-24T17:30:18.541Z,48.90
2018-07-24T17:32:50.813Z,48.40
2018-07-24T17:35:23.332Z,49.40
2018-07-24T17:37:55.698Z,49.40
2018-07-24T17:40:28.116Z,49.50
2018-07-24T17:43:00.377Z,48.60
2018-07-24T17:45:32.560Z,49.10
2018-07-24T17:48:05.451Z,50.20
2018-07-24T17:50:37.593Z,50.40
2018-07-24T17:53:09.726Z,50.50
2018-07-24T17:55:41.986Z,50.80
2018-07-24T17:58:14.144Z,50.90
2018-07-24T18:00:46.335Z,50.80
2018-07-24T18:03:18.534Z,51.10
2018-07-24T18:05:50.631Z,51.30
2018-07-24T18:08:22.889Z,51.60
2018-07-24T18:10:55.141Z,51.40
2018-07-24T18:13:27.268Z,51.50
2018-07-24T18:15:59.860Z,51.80
2018-07-24T18:18:32.016Z,51.90
2018-07-24T18:21:04.186Z,52.00
2018-07-24T18:23:37.240Z,52.10
2018-07-24T18:26:09.515Z,52.20
2018-07-24T18:28:41.674Z,52.30
2018-07-24T18:31:14.449Z,52.50
2018-07-24T18:33:46.708Z,52.20
2018-07-24T18:36:19.146Z,52.50
2018-07-24T18:38:51.800Z,52.50
2018-07-24T18:41:23.954Z,52.50
2018-07-24T18:43:55.907Z,52.70
2018-07-24T18:46:28.056Z,52.50
2018-07-24T18:51:32.588Z,52.80
2018-07-24T18:54:05.897Z,53.10
2018-07-24T18:56:38.115Z,52.90
2018-07-24T18:59:10.282Z,52.90
2018-07-24T19:01:42.449Z,53.10
2018-07-24T19:04:14.684Z,53.10
2018-07-24T19:09:18.068Z,52.90
2018-07-24T19:11:50.146Z,53.20
2018-07-24T19:14:22.417Z,53.10
2018-07-24T19:16:54.469Z,53.20
2018-07-24T19:19:26.652Z,53.10
2018-07-24T19:27:02.036Z,53.20
2018-07-24T19:29:34.530Z,53.10
2018-07-24T19:32:07.255Z,53.00
2018-07-24T19:34:39.431Z,53.10
2018-07-24T19:37:11.469Z,53.10
2018-07-24T19:39:43.610Z,53.60
2018-07-24T19:42:16.911Z,53.00
2018-07-24T19:44:49.731Z,53.10
2018-07-24T19:47:23.550Z,53.20
2018-07-24T19:49:58.148Z,53.10
2018-07-24T19:52:31.547Z,53.10
2018-07-24T19:55:03.973Z,53.10
2018-07-24T19:57:38.174Z,53.20
2018-07-24T20:00:15.308Z,53.10
2018-07-24T20:02:48.797Z,53.50
2018-07-24T20:05:20.928Z,53.20
2018-07-24T20:07:53.198Z,53.20
2018-07-24T20:10:26.490Z,53.10
2018-07-24T20:12:58.636Z,51.70
2018-07-24T20:15:38.341Z,52.90
2018-07-24T20:18:10.528Z,53.40
2018-07-24T20:20:42.829Z,53.70
2018-07-24T20:23:15.260Z,53.80
2018-07-24T20:25:47.396Z,54.00
2018-07-24T20:28:19.765Z,54.40
2018-07-24T20:30:55.750Z,54.30
2018-07-24T20:33:27.978Z,54.80
2018-07-24T20:38:31.431Z,54.40
2018-07-24T20:41:03.654Z,54.40
2018-07-24T20:43:35.969Z,54.20
2018-07-24T20:46:08.252Z,54.10
2018-07-24T20:48:40.235Z,53.60
2018-07-24T20:51:12.453Z,53.50
2018-07-24T20:53:44.656Z,53.40
2018-07-24T20:56:16.610Z,53.50
2018-07-24T20:58:48.748Z,53.50
2018-07-24T21:01:20.897Z,53.40
2018-07-24T21:03:53.082Z,54.10
2018-07-24T21:06:25.170Z,53.60
2018-07-24T21:08:57.308Z,53.80
2018-07-24T21:14:00.746Z,53.90
2018-07-24T21:16:33.001Z,53.90
2018-07-24T21:19:05.354Z,54.00
2018-07-24T21:21:38.243Z,54.00
2018-07-24T21:24:10.344Z,54.00
2018-07-24T21:26:42.570Z,54.00
2018-07-24T21:29:14.803Z,54.00
2018-07-24T21:31:46.903Z,53.90
2018-07-24T21:34:18.967Z,54.00
2018-07-24T21:36:51.134Z,53.90
2018-07-24T21:39:23.275Z,54.10
2018-07-24T21:41:56.088Z,53.80
2018-07-24T21:44:28.376Z,53.80
2018-07-24T21:47:00.401Z,53.90
2018-07-24T21:49:32.462Z,53.90
2018-07-24T21:52:04.616Z,53.90
2018-07-24T21:54:36.694Z,54.20
2018-07-24T21:57:08.768Z,54.20
2018-07-24T21:59:41.187Z,54.30
2018-07-24T22:02:13.486Z,54.30
2018-07-24T22:04:45.600Z,54.40
2018-07-24T22:07:17.711Z,54.30
2018-07-24T22:09:49.770Z,54.30
2018-07-24T22:12:22.076Z,54.20
2018-07-24T22:14:56.220Z,54.40
2018-07-24T22:17:28.762Z,54.40
2018-07-24T22:20:00.884Z,54.50
2018-07-24T22:22:33.015Z,54.50
2018-07-24T22:25:05.155Z,54.50
2018-07-24T22:27:37.214Z,54.80
2018-07-24T22:30:10.472Z,55.50
2018-07-24T22:32:46.744Z,54.80
2018-07-24T22:35:18.854Z,54.80
2018-07-24T22:37:54.299Z,54.90
2018-07-24T22:40:27.477Z,55.50
2018-07-24T22:42:59.493Z,54.70
2018-07-24T22:45:31.694Z,54.60
2018-07-24T22:48:03.794Z,54.70
2018-07-24T22:50:36.002Z,54.90
2018-07-24T22:53:08.162Z,54.90
2018-07-24T22:55:40.193Z,54.90
2018-07-24T22:58:12.240Z,54.90
2018-07-24T23:00:44.373Z,55.00
2018-07-24T23:03:16.514Z,54.90
2018-07-24T23:05:48.946Z,55.00
2018-07-24T23:08:21.169Z,54.70
2018-07-24T23:10:53.294Z,54.60
2018-07-24T23:13:25.591Z,55.10
2018-07-24T23:21:00.136Z,55.10
2018-07-24T23:23:32.329Z,54.90
2018-07-24T23:26:04.568Z,55.00
2018-07-24T23:28:36.684Z,55.00
2018-07-24T23:31:08.831Z,55.20
2018-07-24T23:33:40.990Z,55.30
2018-07-24T23:36:19.537Z,55.30
2018-07-24T23:39:03.868Z,55.30
2018-07-24T23:41:46.515Z,55.30
2018-07-24T23:44:19.561Z,55.50
2018-07-24T23:46:51.597Z,55.50
2018-07-24T23:49:32.432Z,56.10
2018-07-24T23:52:05.554Z,55.20
2018-07-24T23:54:37.642Z,55.50
2018-07-24T23:57:09.847Z,55.50
2018-07-24T23:59:41.997Z,55.40
